createdAt,value
2018-04-18T00:01:37.704Z,95592.45
2018-04-18T00:04:04.580Z,95588.66
2018-04-18T00:06:31.420Z,95592.69
2018-04-18T00:09:00.315Z,95592.69
2018-04-18T00:11:27.261Z,95596.47
2018-04-18T00:13:54.057Z,95590.79
2018-04-18T00:16:20.904Z,95585.11
2018-04-18T00:18:47.779Z,95593.42
2018-04-18T00:21:14.690Z,95593.67
2018-04-18T00:23:41.575Z,95595.44
2018-04-18T00:26:08.408Z,95594.30
2018-04-18T00:28:35.463Z,95600.74
2018-04-18T00:31:02.444Z,95592.78
2018-04-18T00:33:29.250Z,95599.98
2018-04-18T00:35:56.299Z,95599.98
2018-04-18T00:38:23.202Z,95597.21
2018-04-18T00:40:50.177Z,95597.59
2018-04-18T00:43:17.370Z,95600.23
2018-04-18T00:45:44.168Z,95604.77
2018-04-18T00:48:10.983Z,95600.96
2018-04-18T00:50:37.826Z,95602.11
2018-04-18T00:53:05.251Z,95597.19
2018-04-18T00:55:32.127Z,95608.66
2018-04-18T00:58:00.163Z,95599.09
2018-04-18T01:00:27.519Z,95602.86
2018-04-18T01:02:54.628Z,95613.81
2018-04-18T01:05:21.436Z,95615.58
2018-04-18T01:07:48.283Z,95618.08
2018-04-18T01:10:15.222Z,95618.46
2018-04-18T01:12:42.165Z,95622.75
2018-04-18T01:15:12.422Z,95624.00
2018-04-18T01:17:39.365Z,95626.53
2018-04-18T01:20:06.277Z,95625.14
2018-04-18T01:22:33.561Z,95622.23
2018-04-18T01:25:00.475Z,95626.02
2018-04-18T01:27:30.162Z,95628.64
2018-04-18T01:29:57.218Z,95625.73
2018-04-18T01:32:25.887Z,95628.02
2018-04-18T01:34:53.027Z,95635.95
2018-04-18T01:37:24.886Z,95633.42
2018-04-18T01:39:50.349Z,95641.74
2018-04-18T01:42:17.477Z,95644.89
2018-04-18T01:44:44.221Z,95639.73
2018-04-18T01:47:11.064Z,95643.38
2018-04-18T01:49:37.912Z,95641.50
2018-04-18T01:52:04.893Z,95639.59
2018-04-18T01:54:31.740Z,95640.73
2018-04-18T01:56:58.572Z,95640.97
2018-04-18T01:59:25.448Z,95642.36
2018-04-18T02:01:52.320Z,95641.97
2018-04-18T02:04:22.237Z,95636.40
2018-04-18T02:06:49.178Z,95647.52
2018-04-18T02:09:19.570Z,95652.16
2018-04-18T02:11:46.448Z,95650.14
2018-04-18T02:14:13.395Z,95643.70
2018-04-18T02:16:40.240Z,95644.60
2018-04-18T02:19:07.121Z,95647.97
2018-04-18T02:21:33.920Z,95646.98
2018-04-18T02:24:00.799Z,95644.67
2018-04-18T02:26:27.745Z,95651.59
2018-04-18T02:28:54.990Z,95649.97
2018-04-18T02:31:21.799Z,95650.97
2018-04-18T02:33:48.747Z,95656.37
2018-04-18T02:36:15.686Z,95657.77
2018-04-18T02:38:42.635Z,95655.89
2018-04-18T02:41:09.472Z,95662.67
2018-04-18T02:43:36.349Z,95656.51
2018-04-18T02:46:03.259Z,95656.48
2018-04-18T02:48:30.135Z,95655.98
2018-04-18T02:50:56.945Z,95660.38
2018-04-18T02:53:23.891Z,95662.40
2018-04-18T02:55:50.766Z,95656.75
2018-04-18T02:58:17.582Z,95665.16
2018-04-18T03:00:44.449Z,95671.33
2018-04-18T03:03:11.265Z,95671.95
2018-04-18T03:05:38.594Z,95666.53
2018-04-18T03:08:06.355Z,95669.55
2018-04-18T03:10:34.620Z,95668.02
2018-04-18T03:13:01.420Z,95675.56
2018-04-18T03:15:28.233Z,95677.85
2018-04-18T03:17:55.072Z,95674.94
2018-04-18T03:20:21.957Z,95680.72
2018-04-18T03:22:48.761Z,95685.88
2018-04-18T03:25:15.633Z,95691.16
2018-04-18T03:27:42.447Z,95692.69
2018-04-18T03:30:09.283Z,95691.30
2018-04-18T03:32:36.172Z,95695.18
2018-04-18T03:35:06.046Z,95690.02
2018-04-18T03:37:32.885Z,95694.42
2018-04-18T03:39:59.764Z,95693.80
2018-04-18T03:42:26.573Z,95689.77
2018-04-18T03:44:53.410Z,95696.56
2018-04-18T03:47:20.256Z,95698.70
2018-04-18T03:49:47.134Z,95706.88
2018-04-18T03:52:13.936Z,95701.33
2018-04-18T03:54:40.812Z,95700.45
2018-04-18T03:57:07.619Z,95696.70
2018-04-18T03:59:34.569Z,95700.81
2018-04-18T04:02:01.214Z,95699.08
2018-04-18T04:04:27.860Z,95701.08
2018-04-18T04:06:54.490Z,95706.94
2018-04-18T04:09:21.093Z,95709.42
2018-04-18T04:11:47.764Z,95709.27
2018-04-18T04:14:14.447Z,95704.39
2018-04-18T04:16:41.003Z,95704.39
2018-04-18T04:19:07.671Z,95711.42
2018-04-18T04:21:34.280Z,95704.63
2018-04-18T04:24:00.943Z,95718.48
2018-04-18T04:26:27.639Z,95713.75
2018-04-18T04:28:54.272Z,95720.19
2018-04-18T04:31:20.872Z,95730.95
2018-04-18T04:33:47.547Z,95733.88
2018-04-18T04:36:14.150Z,95730.39
2018-04-18T04:38:40.814Z,95738.08
2018-04-18T04:41:07.435Z,95739.09
2018-04-18T04:43:34.093Z,95741.48
2018-04-18T04:46:00.697Z,95744.88
2018-04-18T04:48:27.373Z,95751.81
2018-04-18T04:50:54.044Z,95759.22
2018-04-18T04:53:20.678Z,95757.59
2018-04-18T04:55:47.309Z,95756.98
2018-04-18T04:58:13.951Z,95760.38
2018-04-18T05:00:40.557Z,95767.21
2018-04-18T05:03:07.191Z,95763.77
2018-04-18T05:05:33.879Z,95774.10
2018-04-18T05:08:00.478Z,95787.45
2018-04-18T05:10:27.128Z,95792.13
2018-04-18T05:12:53.762Z,95789.36
2018-04-18T05:15:20.400Z,95796.69
2018-04-18T05:17:47.076Z,95795.20
2018-04-18T05:20:13.676Z,95798.70
2018-04-18T05:22:40.359Z,95796.11
2018-04-18T05:25:07.049Z,95799.81
2018-04-18T05:27:33.727Z,95801.73
2018-04-18T05:30:00.351Z,95805.83
2018-04-18T05:32:27.024Z,95795.48
2018-04-18T05:34:53.655Z,95800.92
2018-04-18T05:37:20.303Z,95803.70
2018-04-18T05:39:46.939Z,95801.33
2018-04-18T05:42:13.615Z,95808.54
2018-04-18T05:44:40.230Z,95808.78
2018-04-18T05:47:06.868Z,95814.22
2018-04-18T05:49:33.513Z,95802.00
2018-04-18T05:52:00.146Z,95809.95
2018-04-18T05:54:26.895Z,95806.17
2018-04-18T05:56:53.583Z,95806.30
2018-04-18T05:59:20.204Z,95808.45
2018-04-18T06:01:46.838Z,95805.94
2018-04-18T06:04:13.473Z,95806.94
2018-04-18T06:06:40.101Z,95812.50
2018-04-18T06:09:06.760Z,95814.38
2018-04-18T06:11:33.402Z,95813.26
2018-04-18T06:14:00.039Z,95811.47
2018-04-18T06:16:26.675Z,95821.08
2018-04-18T06:18:53.323Z,95813.26
2018-04-18T06:21:20.099Z,95814.36
2018-04-18T06:23:46.742Z,95811.43
2018-04-18T06:26:13.369Z,95816.01
2018-04-18T06:28:40.006Z,95819.92
2018-04-18T06:31:06.610Z,95827.73
2018-04-18T06:33:33.284Z,95830.89
2018-04-18T06:35:59.944Z,95828.12
2018-04-18T06:38:26.560Z,95831.91
2018-04-18T06:40:55.823Z,95829.27
2018-04-18T06:43:22.469Z,95833.18
2018-04-18T06:45:49.138Z,95832.91
2018-04-18T06:48:16.289Z,95835.66
2018-04-18T06:50:42.922Z,95831.34
2018-04-18T06:53:09.589Z,95834.41
2018-04-18T06:55:36.226Z,95834.91
2018-04-18T06:58:02.863Z,95832.95
2018-04-18T07:00:29.520Z,95829.19
2018-04-18T07:02:56.187Z,95824.48
2018-04-18T07:05:22.820Z,95828.62
2018-04-18T07:07:49.412Z,95843.80
2018-04-18T07:10:16.090Z,95833.72
2018-04-18T07:12:42.773Z,95830.02
2018-04-18T07:15:09.414Z,95829.61
2018-04-18T07:17:36.100Z,95825.66
2018-04-18T07:20:02.708Z,95833.75
2018-04-18T07:22:29.353Z,95835.27
2018-04-18T07:24:56.202Z,95835.53
2018-04-18T07:27:22.855Z,95836.02
2018-04-18T07:29:49.466Z,95833.95
2018-04-18T07:32:16.136Z,95835.64
2018-04-18T07:34:42.741Z,95835.12
2018-04-18T07:37:09.389Z,95835.52
2018-04-18T07:39:36.041Z,95842.38
2018-04-18T07:42:02.783Z,95846.55
2018-04-18T07:44:29.419Z,95846.41
2018-04-18T07:46:56.044Z,95841.20
2018-04-18T07:49:22.770Z,95847.91
2018-04-18T07:51:49.403Z,95850.55
2018-04-18T07:54:16.072Z,95856.25
2018-04-18T07:56:42.716Z,95859.66
2018-04-18T07:59:09.315Z,95856.88
2018-04-18T08:01:35.974Z,95850.39
2018-04-18T08:04:02.633Z,95849.27
2018-04-18T08:06:29.267Z,95850.38
2018-04-18T08:08:55.946Z,95850.85
2018-04-18T08:11:22.576Z,95844.22
2018-04-18T08:13:49.219Z,95847.89
2018-04-18T08:16:15.886Z,95855.71
2018-04-18T08:18:42.491Z,95851.19
2018-04-18T08:21:09.196Z,95858.38
2018-04-18T08:23:35.840Z,95863.43
2018-04-18T08:26:03.530Z,95863.24
2018-04-18T08:28:30.192Z,95859.91
2018-04-18T08:30:56.847Z,95865.08
2018-04-18T08:33:23.513Z,95868.42
2018-04-18T08:35:50.157Z,95864.23
2018-04-18T08:38:16.938Z,95864.68
2018-04-18T08:40:43.581Z,95868.33
2018-04-18T08:43:10.270Z,95867.11
2018-04-18T08:45:36.903Z,95867.21
2018-04-18T08:48:03.501Z,95866.58
2018-04-18T08:50:30.167Z,95866.62
2018-04-18T08:52:56.832Z,95865.69
2018-04-18T08:55:23.488Z,95866.53
2018-04-18T08:57:50.146Z,95865.29
2018-04-18T09:00:16.789Z,95863.79
2018-04-18T09:02:43.423Z,95868.56
2018-04-18T09:05:10.104Z,95872.72
2018-04-18T09:07:36.749Z,95871.44
2018-04-18T09:10:03.409Z,95868.63
2018-04-18T09:12:30.072Z,95868.65
2018-04-18T09:14:56.683Z,95865.70
2018-04-18T09:17:23.311Z,95867.80
2018-04-18T09:19:49.992Z,95870.50
2018-04-18T09:22:16.599Z,95866.91
2018-04-18T09:24:43.273Z,95863.26
2018-04-18T09:27:09.885Z,95866.88
2018-04-18T09:29:36.552Z,95870.61
2018-04-18T09:32:03.205Z,95868.27
2018-04-18T09:34:29.852Z,95861.05
2018-04-18T09:36:56.511Z,95855.98
2018-04-18T09:39:23.209Z,95850.79
2018-04-18T09:41:49.847Z,95856.59
2018-04-18T09:44:16.578Z,95855.36
2018-04-18T09:46:43.149Z,95848.98
2018-04-18T09:49:09.820Z,95856.70
2018-04-18T09:51:36.467Z,95851.72
2018-04-18T09:54:03.072Z,95857.80
2018-04-18T09:56:29.711Z,95847.61
2018-04-18T09:58:56.349Z,95857.38
2018-04-18T10:01:22.998Z,95853.31
2018-04-18T10:03:49.650Z,95855.85
2018-04-18T10:06:16.294Z,95855.34
2018-04-18T10:08:42.980Z,95850.43
2018-04-18T10:11:09.637Z,95842.13
2018-04-18T10:13:36.277Z,95840.48
2018-04-18T10:16:02.980Z,95835.77
2018-04-18T10:18:29.643Z,95836.17
2018-04-18T10:20:56.765Z,95836.62
2018-04-18T10:23:23.374Z,95840.55
2018-04-18T10:25:50.057Z,95831.70
2018-04-18T10:28:16.668Z,95829.23
2018-04-18T10:30:43.397Z,95830.34
2018-04-18T10:33:10.009Z,95829.23
2018-04-18T10:35:36.689Z,95827.20
2018-04-18T10:38:03.328Z,95822.45
2018-04-18T10:40:30.005Z,95830.25
2018-04-18T10:42:56.668Z,95830.06
2018-04-18T10:45:23.277Z,95823.05
2018-04-18T10:47:49.944Z,95814.20
2018-04-18T10:50:16.582Z,95828.81
2018-04-18T10:52:43.180Z,95828.02
2018-04-18T10:55:09.824Z,95825.94
2018-04-18T10:57:36.455Z,95822.95
2018-04-18T11:00:03.240Z,95820.25
2018-04-18T11:02:29.906Z,95818.52
2018-04-18T11:04:56.507Z,95824.81
2018-04-18T11:07:23.154Z,95822.38
2018-04-18T11:09:49.846Z,95826.43
2018-04-18T11:12:17.564Z,95828.08
2018-04-18T11:14:44.240Z,95819.94
2018-04-18T11:17:10.888Z,95823.76
2018-04-18T11:19:37.699Z,95816.12
2018-04-18T11:22:04.351Z,95818.81
2018-04-18T11:24:31.002Z,95818.52
2018-04-18T11:26:57.719Z,95818.77
2018-04-18T11:29:24.293Z,95818.31
2018-04-18T11:31:50.929Z,95816.20
2018-04-18T11:34:17.572Z,95812.45
2018-04-18T11:36:44.222Z,95816.59
2018-04-18T11:39:10.930Z,95820.02
2018-04-18T11:41:37.567Z,95814.98
2018-04-18T11:44:04.238Z,95813.12
2018-04-18T11:46:30.891Z,95810.50
2018-04-18T11:48:57.495Z,95796.83
2018-04-18T11:51:24.162Z,95809.49
2018-04-18T11:53:50.825Z,95803.61
2018-04-18T11:56:17.512Z,95804.11
2018-04-18T11:58:44.120Z,95806.91
2018-04-18T12:01:10.835Z,95800.27
2018-04-18T12:03:37.485Z,95804.27
2018-04-18T12:06:04.135Z,95796.49
2018-04-18T12:08:30.774Z,95795.11
2018-04-18T12:10:57.444Z,95788.67
2018-04-18T12:13:24.084Z,95793.92
2018-04-18T12:15:50.736Z,95785.80
2018-04-18T12:18:17.336Z,95795.19
2018-04-18T12:20:44.197Z,95785.97
2018-04-18T12:23:10.757Z,95786.86
2018-04-18T12:25:37.397Z,95789.05
2018-04-18T12:28:04.030Z,95779.62
2018-04-18T12:30:30.720Z,95781.70
2018-04-18T12:32:57.359Z,95781.77
2018-04-18T12:35:23.968Z,95780.08
2018-04-18T12:37:50.646Z,95776.06
2018-04-18T12:40:17.288Z,95772.59
2018-04-18T12:42:43.936Z,95768.45
2018-04-18T12:45:10.640Z,95772.62
2018-04-18T12:47:37.236Z,95766.34
2018-04-18T12:50:03.895Z,95760.23
2018-04-18T12:52:30.571Z,95758.66
2018-04-18T12:54:57.202Z,95760.16
2018-04-18T12:57:23.830Z,95759.70
2018-04-18T12:59:50.553Z,95755.30
2018-04-18T13:02:17.189Z,95754.41
2018-04-18T13:04:43.813Z,95759.09
2018-04-18T13:07:10.468Z,95763.81
2018-04-18T13:09:37.102Z,95758.46
2018-04-18T13:12:03.756Z,95755.16
2018-04-18T13:14:30.433Z,95753.25
2018-04-18T13:16:57.075Z,95747.39
2018-04-18T13:19:23.711Z,95751.41
2018-04-18T13:21:50.405Z,95743.38
2018-04-18T13:24:17.042Z,95751.84
2018-04-18T13:26:43.696Z,95748.09
2018-04-18T13:29:10.383Z,95759.27
2018-04-18T13:31:37.028Z,95758.46
2018-04-18T13:34:03.638Z,95750.61
2018-04-18T13:36:30.688Z,95749.05
2018-04-18T13:38:57.342Z,95750.52
2018-04-18T13:41:23.963Z,95757.76
2018-04-18T13:43:50.664Z,95751.99
2018-04-18T13:46:17.660Z,95748.48
2018-04-18T13:48:44.375Z,95751.32
2018-04-18T13:51:11.043Z,95751.20
2018-04-18T13:53:37.676Z,95748.94
2018-04-18T13:56:04.355Z,95744.09
2018-04-18T13:58:30.992Z,95746.53
2018-04-18T14:00:57.623Z,95740.78
2018-04-18T14:03:24.286Z,95740.81
2018-04-18T14:05:50.919Z,95741.97
2018-04-18T14:08:17.563Z,95741.83
2018-04-18T14:10:44.290Z,95750.73
2018-04-18T14:13:10.936Z,95747.20
2018-04-18T14:15:37.879Z,95749.11
2018-04-18T14:18:04.564Z,95748.10
2018-04-18T14:20:31.226Z,95741.37
2018-04-18T14:22:57.832Z,95746.58
2018-04-18T14:25:24.481Z,95747.80
2018-04-18T14:27:51.120Z,95747.63
2018-04-18T14:30:17.828Z,95740.93
2018-04-18T14:32:44.489Z,95747.82
2018-04-18T14:35:11.102Z,95747.46
2018-04-18T14:37:37.740Z,95753.73
2018-04-18T14:40:04.417Z,95748.86
2018-04-18T14:42:31.014Z,95748.05
2018-04-18T14:44:57.681Z,95752.72
2018-04-18T14:47:24.356Z,95754.80
2018-04-18T14:49:50.995Z,95755.94
2018-04-18T14:52:17.667Z,95753.73
2018-04-18T14:54:44.261Z,95760.44
2018-04-18T14:57:10.907Z,95769.98
2018-04-18T14:59:37.588Z,95764.86
2018-04-18T15:02:05.438Z,95759.78
2018-04-18T15:04:30.866Z,95768.64
2018-04-18T15:06:57.512Z,95773.58
2018-04-18T15:09:24.174Z,95774.73
2018-04-18T15:11:50.815Z,95769.56
2018-04-18T15:14:17.482Z,95773.75
2018-04-18T15:16:44.119Z,95773.88
2018-04-18T15:19:10.760Z,95776.48
2018-04-18T15:21:37.442Z,95783.47
2018-04-18T15:24:04.031Z,95781.59
2018-04-18T15:26:30.719Z,95784.69
2018-04-18T15:28:57.351Z,95786.98
2018-04-18T15:31:24.001Z,95794.64
2018-04-18T15:33:50.636Z,95798.70
2018-04-18T15:36:17.278Z,95801.32
2018-04-18T15:38:43.910Z,95802.80
2018-04-18T15:41:10.618Z,95800.52
2018-04-18T15:43:37.262Z,95803.23
2018-04-18T15:46:03.863Z,95803.73
2018-04-18T15:48:30.544Z,95808.80
2018-04-18T15:50:57.181Z,95807.95
2018-04-18T15:53:23.831Z,95811.85
2018-04-18T15:55:50.548Z,95816.95
2018-04-18T15:58:17.152Z,95815.14
2018-04-18T16:00:43.811Z,95812.02
2018-04-18T16:03:10.429Z,95810.02
2018-04-18T16:05:37.110Z,95815.23
2018-04-18T16:08:03.749Z,95820.98
2018-04-18T16:10:30.416Z,95824.09
2018-04-18T16:12:57.026Z,95824.28
2018-04-18T16:15:23.690Z,95831.55
2018-04-18T16:17:50.342Z,95831.89
2018-04-18T16:20:17.035Z,95835.54
2018-04-18T16:22:43.709Z,95832.27
2018-04-18T16:25:10.345Z,95840.64
2018-04-18T16:27:36.978Z,95845.20
2018-04-18T16:30:03.656Z,95848.80
2018-04-18T16:32:30.365Z,95850.25
2018-04-18T16:34:56.927Z,95854.24
2018-04-18T16:37:23.572Z,95856.69
2018-04-18T16:39:50.199Z,95859.53
2018-04-18T16:42:16.815Z,95869.16
2018-04-18T16:44:43.471Z,95867.01
2018-04-18T16:47:10.080Z,95875.91
2018-04-18T16:49:36.755Z,95876.54
2018-04-18T16:52:03.350Z,95875.39
2018-04-18T16:54:30.022Z,95883.44
2018-04-18T16:56:56.681Z,95880.80
2018-04-18T16:59:23.293Z,95892.17
2018-04-18T17:01:49.929Z,95891.19
2018-04-18T17:04:16.567Z,95891.47
2018-04-18T17:06:43.275Z,95901.22
2018-04-18T17:09:09.844Z,95906.27
2018-04-18T17:11:36.492Z,95905.78
2018-04-18T17:14:03.134Z,95910.11
2018-04-18T17:16:29.835Z,95915.18
2018-04-18T17:18:56.497Z,95915.70
2018-04-18T17:21:23.134Z,95914.36
2018-04-18T17:23:49.787Z,95918.30
2018-04-18T17:26:16.425Z,95919.70
2018-04-18T17:28:43.062Z,95923.31
2018-04-18T17:31:09.694Z,95924.11
2018-04-18T17:33:36.409Z,95927.92
2018-04-18T17:36:03.007Z,95932.98
2018-04-18T17:38:29.647Z,95938.67
2018-04-18T17:40:56.349Z,95941.86
2018-04-18T17:43:23.013Z,95941.61
2018-04-18T17:45:49.686Z,95950.11
2018-04-18T17:48:16.324Z,95947.95
2018-04-18T17:50:45.081Z,95949.13
2018-04-18T17:53:11.761Z,95954.19
2018-04-18T17:55:38.465Z,95953.42
2018-04-18T17:58:05.179Z,95966.11
2018-04-18T18:00:31.803Z,95963.19
2018-04-18T18:02:58.478Z,95967.77
2018-04-18T18:05:25.117Z,95971.06
2018-04-18T18:07:51.747Z,95970.42
2018-04-18T18:10:18.353Z,95975.38
2018-04-18T18:12:45.068Z,95981.08
2018-04-18T18:15:11.705Z,95979.58
2018-04-18T18:17:38.349Z,95981.72
2018-04-18T18:20:04.943Z,95984.03
2018-04-18T18:22:31.623Z,95987.81
2018-04-18T18:24:58.265Z,95993.91
2018-04-18T18:27:24.897Z,95991.76
2018-04-18T18:29:51.536Z,95995.80
2018-04-18T18:32:18.139Z,95997.45
2018-04-18T18:34:44.778Z,96000.39
2018-04-18T18:37:11.447Z,96002.02
2018-04-18T18:39:38.090Z,96006.71
2018-04-18T18:42:04.763Z,96004.83
2018-04-18T18:44:31.431Z,96007.11
2018-04-18T18:46:58.059Z,95998.27
2018-04-18T18:49:24.698Z,96003.72
2018-04-18T18:51:51.292Z,96003.07
2018-04-18T18:54:17.968Z,96007.87
2018-04-18T18:56:44.634Z,96004.09
2018-04-18T18:59:11.308Z,96005.98
2018-04-18T19:01:37.903Z,96012.81
2018-04-18T19:04:04.575Z,96013.83
2018-04-18T19:06:31.171Z,96013.19
2018-04-18T19:08:57.861Z,96017.38
2018-04-18T19:11:24.493Z,96017.90
2018-04-18T19:13:51.151Z,96017.38
2018-04-18T19:16:17.790Z,96021.81
2018-04-18T19:18:44.462Z,96024.60
2018-04-18T19:21:11.135Z,96019.15
2018-04-18T19:23:37.771Z,96023.09
2018-04-18T19:26:04.433Z,96028.41
2018-04-18T19:28:31.076Z,96020.94
2018-04-18T19:30:57.708Z,96014.73
2018-04-18T19:33:24.345Z,96014.63
2018-04-18T19:35:50.991Z,96010.81
2018-04-18T19:38:17.632Z,96013.11
2018-04-18T19:40:44.277Z,96008.56
2018-04-18T19:43:10.948Z,96009.81
2018-04-18T19:45:37.793Z,96013.75
2018-04-18T19:48:04.477Z,96023.61
2018-04-18T19:50:31.111Z,96014.73
2018-04-18T19:52:57.740Z,96018.42
2018-04-18T19:55:24.392Z,96024.61
2018-04-18T19:57:51.026Z,96025.38
2018-04-18T20:00:17.666Z,96022.72
2018-04-18T20:02:44.326Z,96023.48
2018-04-18T20:05:10.988Z,96023.23
2018-04-18T20:07:37.570Z,96019.19
2018-04-18T20:10:04.254Z,96020.19
2018-04-18T20:12:30.893Z,96022.45
2018-04-18T20:14:57.595Z,96018.04
2018-04-18T20:17:24.229Z,96015.77
2018-04-18T20:19:51.076Z,96018.67
2018-04-18T20:22:17.718Z,96020.83
2018-04-18T20:24:44.333Z,96017.53
2018-04-18T20:27:11.088Z,96018.80
2018-04-18T20:29:37.755Z,96014.48
2018-04-18T20:32:04.421Z,96018.55
2018-04-18T20:34:31.100Z,96018.41
2018-04-18T20:36:57.760Z,96020.19
2018-04-18T20:39:24.505Z,96021.69
2018-04-18T20:41:51.175Z,96018.28
2018-04-18T20:44:17.925Z,96024.72
2018-04-18T20:46:44.569Z,96025.84
2018-04-18T20:49:11.237Z,96023.69
2018-04-18T20:51:37.901Z,96024.45
2018-04-18T20:54:04.610Z,96017.47
2018-04-18T20:56:31.239Z,96014.58
2018-04-18T20:58:57.911Z,96020.91
2018-04-18T21:01:24.579Z,96022.03
2018-04-18T21:03:51.251Z,96014.45
2018-04-18T21:06:17.919Z,96019.88
2018-04-18T21:08:44.590Z,96024.19
2018-04-18T21:11:11.253Z,96028.47
2018-04-18T21:13:37.976Z,96021.27
2018-04-18T21:16:04.581Z,96024.68
2018-04-18T21:18:31.325Z,96017.21
2018-04-18T21:20:57.984Z,96018.71
2018-04-18T21:23:24.637Z,96017.70
2018-04-18T21:25:51.333Z,96022.87
2018-04-18T21:28:17.973Z,96019.61
2018-04-18T21:30:44.681Z,96023.78
2018-04-18T21:33:11.358Z,96022.12
2018-04-18T21:35:38.014Z,96024.00
2018-04-18T21:38:04.723Z,96034.49
2018-04-18T21:40:31.396Z,96031.72
2018-04-18T21:42:58.139Z,96027.68
2018-04-18T21:45:24.770Z,96027.41
2018-04-18T21:47:51.519Z,96029.70
2018-04-18T21:50:18.229Z,96034.49
2018-04-18T21:52:44.911Z,96031.58
2018-04-18T21:55:11.620Z,96035.22
2018-04-18T21:57:38.361Z,96033.84
2018-04-18T22:00:05.064Z,96033.59
2018-04-18T22:02:31.767Z,96039.63
2018-04-18T22:04:58.469Z,96035.47
2018-04-18T22:07:25.095Z,96042.16
2018-04-18T22:09:51.817Z,96039.25
2018-04-18T22:12:18.561Z,96054.91
2018-04-18T22:14:45.289Z,96047.58
2018-04-18T22:17:11.954Z,96054.16
2018-04-18T22:19:38.653Z,96043.80
2018-04-18T22:22:05.292Z,96047.45
2018-04-18T22:24:31.993Z,96032.54
2018-04-18T22:26:58.693Z,96030.00
2018-04-18T22:29:25.424Z,96030.24
2018-04-18T22:31:52.054Z,96027.70
2018-04-18T22:34:18.718Z,96029.90
2018-04-18T22:36:45.389Z,96029.37
2018-04-18T22:39:12.128Z,96026.70
2018-04-18T22:41:38.807Z,96028.61
2018-04-18T22:44:05.505Z,96031.00
2018-04-18T22:46:32.227Z,96032.74
2018-04-18T22:48:58.857Z,96036.42
2018-04-18T22:51:25.517Z,96036.90
2018-04-18T22:53:52.234Z,96037.91
2018-04-18T22:56:18.932Z,96038.25
2018-04-18T22:58:45.656Z,96035.97
2018-04-18T23:01:12.290Z,96035.27
2018-04-18T23:03:38.958Z,96033.70
2018-04-18T23:06:05.633Z,96034.19
2018-04-18T23:08:32.348Z,96029.53
2018-04-18T23:10:59.007Z,96025.47
2018-04-18T23:13:25.733Z,96022.69
2018-04-18T23:15:52.403Z,96021.30
2018-04-18T23:18:19.062Z,96020.92
2018-04-18T23:20:45.739Z,96020.53
2018-04-18T23:23:12.475Z,96017.47
2018-04-18T23:25:39.150Z,96015.59
2018-04-18T23:28:05.816Z,96014.45
2018-04-18T23:30:32.557Z,96015.59
2018-04-18T23:32:59.216Z,96017.09
2018-04-18T23:35:25.844Z,96016.08
2018-04-18T23:37:52.524Z,96015.55
2018-04-18T23:40:19.198Z,96019.09
2018-04-18T23:42:46.020Z,96017.56
2018-04-18T23:45:12.652Z,96021.23
2018-04-18T23:47:39.319Z,96019.72
2018-04-18T23:50:06.027Z,96015.26
2018-04-18T23:52:32.787Z,96010.38
2018-04-18T23:54:59.455Z,96013.88
2018-04-18T23:57:26.119Z,96015.40
2018-04-18T23:59:52.798Z,96014.53
